Terminal Aerodrome Forecast
Issued by NWS Corpus Christi, TX

Home | Current Version | Previous Version | Text Only | Print | Product List | Glossary On
Versions: 1 2 3 4 5 6 7 8 9 10 11 12 13 14 15 16 17 18 19 20
000
FTUS44 KCRP 280530
TAFCRP
TAF
KCRP 280530Z 2806/2906 15011KT P6SM BKN020
      TEMPO 2809/2813 6SM BR
     FM281300 16016G22KT P6SM BKN025
     FM281800 16022G29KT P6SM OVC050
     FM290100 16022G28KT P6SM BKN025=

USA.gov is the U.S. government's official web portal to all federal, state and local government web resources and services.